createdAt,value
2023-05-22T00:01:50.919Z,44.42
2023-05-22T00:04:20.363Z,44.47
2023-05-22T00:06:46.163Z,44.48
2023-05-22T00:09:11.871Z,44.59
2023-05-22T00:11:38.586Z,44.45
2023-05-22T00:14:04.729Z,44.53
2023-05-22T00:16:30.663Z,44.40
2023-05-22T00:18:56.786Z,44.38
2023-05-22T00:21:23.621Z,44.51
2023-05-22T00:23:49.635Z,44.55
2023-05-22T00:26:15.837Z,44.47
2023-05-22T00:28:42.252Z,44.57
2023-05-22T00:31:08.115Z,44.42
2023-05-22T00:33:33.861Z,44.39
2023-05-22T00:36:00.023Z,44.39
2023-05-22T00:38:29.705Z,44.60
2023-05-22T00:40:55.383Z,44.55
2023-05-22T00:43:21.058Z,44.45
2023-05-22T00:45:46.826Z,44.54
2023-05-22T00:48:12.980Z,44.45
2023-05-22T00:50:38.915Z,44.55
2023-05-22T00:53:04.745Z,44.44
2023-05-22T00:55:30.466Z,44.60
2023-05-22T00:57:56.671Z,44.63
2023-05-22T01:00:22.837Z,44.53
2023-05-22T01:02:48.513Z,44.54
2023-05-22T01:05:17.251Z,44.47
2023-05-22T01:07:44.935Z,44.42
2023-05-22T01:10:10.857Z,44.53
2023-05-22T01:13:01.614Z,44.47
2023-05-22T01:15:38.689Z,44.43
2023-05-22T01:18:18.914Z,44.47
2023-05-22T01:20:57.310Z,44.48
2023-05-22T01:24:02.830Z,44.39
2023-05-22T01:26:45.619Z,44.53
2023-05-22T01:29:17.465Z,44.52
2023-05-22T01:31:44.966Z,44.62
2023-05-22T01:34:11.310Z,44.60
2023-05-22T01:36:37.469Z,44.40
2023-05-22T01:39:05.571Z,44.47
2023-05-22T01:41:33.284Z,44.56
2023-05-22T01:44:00.026Z,44.47
2023-05-22T01:46:26.898Z,44.60
2023-05-22T01:48:52.573Z,44.46
2023-05-22T01:51:23.434Z,44.49
2023-05-22T01:53:58.257Z,44.36
2023-05-22T01:56:33.741Z,44.50
2023-05-22T01:59:06.288Z,44.58
2023-05-22T02:01:33.467Z,44.52
2023-05-22T02:04:00.331Z,44.53
2023-05-22T02:06:28.225Z,44.54
2023-05-22T02:08:54.226Z,44.53
2023-05-22T02:11:20.883Z,44.47
2023-05-22T02:13:47.246Z,44.51
2023-05-22T02:16:13.247Z,44.44
2023-05-22T02:18:40.910Z,44.80
2023-05-22T02:21:07.765Z,44.54
2023-05-22T02:23:33.826Z,44.65
2023-05-22T02:25:59.546Z,44.56
2023-05-22T02:28:25.221Z,44.60
2023-05-22T02:30:50.939Z,44.55
2023-05-22T02:33:17.810Z,44.43
2023-05-22T02:35:44.293Z,44.61
2023-05-22T02:38:10.149Z,44.67
2023-05-22T02:40:35.785Z,44.52
2023-05-22T02:43:01.425Z,44.51
2023-05-22T02:45:27.578Z,44.59
2023-05-22T02:47:53.293Z,44.63
2023-05-22T02:50:18.988Z,44.53
2023-05-22T02:52:44.639Z,44.55
2023-05-22T02:55:10.516Z,44.58
2023-05-22T02:57:36.215Z,44.58
2023-05-22T03:00:02.944Z,44.59
2023-05-22T03:02:29.200Z,44.46
2023-05-22T03:04:58.077Z,44.69
2023-05-22T03:07:25.545Z,44.56
2023-05-22T03:09:51.900Z,44.73
2023-05-22T03:12:17.616Z,44.62
2023-05-22T03:14:43.885Z,44.60
2023-05-22T03:17:09.628Z,44.53
2023-05-22T03:19:35.352Z,44.63
2023-05-22T03:22:01.046Z,44.67
2023-05-22T03:24:26.938Z,44.79
2023-05-22T03:26:52.599Z,44.60
2023-05-22T03:29:18.287Z,44.62
2023-05-22T03:31:43.948Z,44.67
2023-05-22T03:34:09.860Z,44.55
2023-05-22T03:36:35.544Z,44.63
2023-05-22T03:39:02.365Z,44.55
2023-05-22T03:41:28.017Z,44.65
2023-05-22T03:43:53.657Z,44.63
2023-05-22T03:46:19.425Z,44.69
2023-05-22T03:48:45.155Z,44.63
2023-05-22T03:51:10.827Z,44.53
2023-05-22T03:53:36.499Z,44.70
2023-05-22T03:56:02.190Z,44.67
2023-05-22T03:58:27.881Z,44.69
2023-05-22T04:00:54.680Z,44.71
2023-05-22T04:03:20.709Z,44.71
2023-05-22T04:05:46.547Z,44.94
2023-05-22T04:08:12.282Z,44.69
2023-05-22T04:10:40.280Z,44.57
2023-05-22T04:13:06.130Z,44.78
2023-05-22T04:15:33.037Z,44.76
2023-05-22T04:17:59.838Z,44.75
2023-05-22T04:20:26.026Z,44.60
2023-05-22T04:22:53.547Z,44.60
2023-05-22T04:25:20.298Z,44.61
2023-05-22T04:27:47.173Z,44.70
2023-05-22T04:30:16.178Z,44.66
2023-05-22T04:32:42.780Z,44.68
2023-05-22T04:35:09.254Z,44.65
2023-05-22T04:37:35.623Z,44.16
2023-05-22T04:40:06.432Z,44.32
2023-05-22T04:42:33.667Z,44.35
2023-05-22T04:45:00.154Z,44.45
2023-05-22T04:47:28.029Z,44.45
2023-05-22T04:49:54.268Z,44.50
2023-05-22T04:52:20.983Z,44.56
2023-05-22T04:54:46.992Z,44.85
2023-05-22T04:57:12.637Z,45.02
2023-05-22T04:59:38.343Z,45.03
2023-05-22T05:02:04.940Z,45.03
2023-05-22T05:04:31.006Z,45.25
2023-05-22T05:06:56.814Z,45.30
2023-05-22T05:09:23.148Z,45.38
2023-05-22T05:11:49.792Z,45.30
2023-05-22T05:14:16.117Z,45.29
2023-05-22T05:16:41.910Z,45.44
2023-05-22T05:19:07.720Z,45.50
2023-05-22T05:21:33.417Z,45.69
2023-05-22T05:23:59.559Z,45.52
2023-05-22T05:26:26.310Z,45.84
2023-05-22T05:28:52.265Z,46.05
2023-05-22T05:31:19.468Z,45.76
2023-05-22T05:33:45.263Z,46.21
2023-05-22T05:36:11.100Z,45.90
2023-05-22T05:38:36.788Z,46.03
2023-05-22T05:41:02.464Z,46.14
2023-05-22T05:43:28.131Z,46.31
2023-05-22T05:45:53.903Z,46.57
2023-05-22T05:48:19.626Z,46.31
2023-05-22T05:50:45.334Z,46.46
2023-05-22T05:53:11.093Z,46.99
2023-05-22T05:55:36.752Z,46.89
2023-05-22T05:58:02.456Z,47.36
2023-05-22T06:00:28.117Z,47.36
2023-05-22T06:02:54.116Z,47.73
2023-05-22T06:05:20.813Z,48.06
2023-05-22T06:07:47.421Z,48.06
2023-05-22T06:10:13.370Z,48.26
2023-05-22T06:12:39.448Z,48.36
2023-05-22T06:15:06.618Z,48.53
2023-05-22T06:17:33.047Z,47.90
2023-05-22T06:19:58.821Z,47.97
2023-05-22T06:22:25.405Z,48.06
2023-05-22T06:24:53.478Z,48.28
2023-05-22T06:27:21.943Z,48.04
2023-05-22T06:29:50.165Z,48.68
2023-05-22T06:32:16.247Z,48.90
2023-05-22T06:34:43.666Z,48.75
2023-05-22T06:37:10.100Z,48.50
2023-05-22T06:39:35.749Z,48.39
2023-05-22T06:42:01.562Z,48.38
2023-05-22T06:44:27.210Z,48.38
2023-05-22T06:46:52.888Z,48.47
2023-05-22T06:49:18.669Z,48.55
2023-05-22T06:51:45.649Z,48.54
2023-05-22T06:54:12.951Z,49.08
2023-05-22T06:56:40.224Z,48.83
2023-05-22T06:59:06.461Z,48.94
2023-05-22T07:01:32.441Z,53.97
2023-05-22T07:04:00.594Z,54.79
2023-05-22T07:06:26.886Z,52.93
2023-05-22T07:08:52.895Z,52.24
2023-05-22T07:11:18.983Z,52.32
2023-05-22T07:13:44.871Z,52.33
2023-05-22T07:16:10.542Z,52.11
2023-05-22T07:18:36.284Z,51.88
2023-05-22T07:21:02.109Z,52.07
2023-05-22T07:23:28.007Z,52.39
2023-05-22T07:25:53.692Z,52.34
2023-05-22T07:28:19.390Z,51.92
2023-05-22T07:30:45.059Z,52.23
2023-05-22T07:33:10.997Z,52.20
2023-05-22T07:35:36.828Z,52.01
2023-05-22T07:38:03.173Z,51.97
2023-05-22T07:40:28.879Z,51.66
2023-05-22T07:42:54.689Z,51.95
2023-05-22T07:45:20.459Z,51.88
2023-05-22T07:47:46.190Z,51.83
2023-05-22T07:50:11.890Z,51.73
2023-05-22T07:52:37.634Z,52.72
2023-05-22T07:55:03.644Z,53.95
2023-05-22T07:57:29.326Z,53.19
2023-05-22T07:59:55.663Z,52.86
2023-05-22T08:02:21.691Z,52.48
2023-05-22T08:04:47.526Z,52.35
2023-05-22T08:07:13.458Z,52.53
2023-05-22T08:09:39.225Z,52.35
2023-05-22T08:12:05.716Z,52.82
2023-05-22T08:14:33.522Z,52.40
2023-05-22T08:16:59.552Z,56.19
2023-05-22T08:19:25.422Z,55.09
2023-05-22T08:21:57.105Z,54.66
2023-05-22T08:24:28.934Z,54.38
2023-05-22T08:26:56.124Z,54.38
2023-05-22T08:29:21.847Z,54.17
2023-05-22T08:31:47.535Z,53.92
2023-05-22T08:34:13.308Z,53.89
2023-05-22T08:36:38.976Z,53.69
2023-05-22T08:39:06.657Z,53.60
2023-05-22T08:41:32.440Z,53.86
2023-05-22T08:43:58.210Z,53.37
2023-05-22T08:46:28.362Z,53.46
2023-05-22T08:48:56.101Z,53.44
2023-05-22T08:51:26.801Z,53.45
2023-05-22T08:53:55.966Z,53.29
2023-05-22T08:56:21.861Z,53.39
2023-05-22T08:58:49.296Z,53.60
2023-05-22T09:01:15.551Z,56.78
2023-05-22T09:03:41.592Z,57.19
2023-05-22T09:06:09.575Z,56.24
2023-05-22T09:08:36.009Z,55.38
2023-05-22T09:11:01.660Z,54.96
2023-05-22T09:13:29.218Z,54.61
2023-05-22T09:15:59.260Z,58.15
2023-05-22T09:18:26.894Z,58.80
2023-05-22T09:23:34.165Z,56.32
2023-05-22T09:26:01.156Z,55.57
2023-05-22T09:28:31.700Z,55.10
2023-05-22T09:30:57.429Z,55.07
2023-05-22T09:33:23.513Z,54.40
2023-05-22T09:35:52.740Z,54.36
2023-05-22T09:38:18.841Z,54.25
2023-05-22T09:40:44.507Z,54.13
2023-05-22T09:43:11.108Z,53.99
2023-05-22T09:45:38.054Z,54.00
2023-05-22T09:48:04.764Z,53.39
2023-05-22T09:50:31.473Z,53.78
2023-05-22T09:53:00.791Z,53.72
2023-05-22T09:55:27.150Z,53.73
2023-05-22T09:57:53.382Z,53.55
2023-05-22T10:00:19.422Z,53.74
2023-05-22T10:02:47.136Z,53.67
2023-05-22T10:05:21.117Z,53.78
2023-05-22T10:07:49.741Z,53.59
2023-05-22T10:10:18.242Z,53.43
2023-05-22T10:12:49.725Z,53.41
2023-05-22T10:15:16.800Z,53.53
2023-05-22T10:17:43.626Z,53.36
2023-05-22T10:20:09.873Z,53.21
2023-05-22T10:22:37.445Z,53.14
2023-05-22T10:25:04.078Z,53.26
2023-05-22T10:27:29.761Z,53.30
2023-05-22T10:30:03.010Z,54.51
2023-05-22T10:32:36.492Z,54.17
2023-05-22T10:35:11.073Z,53.65
2023-05-22T10:37:44.809Z,53.56
2023-05-22T10:40:12.619Z,53.38
2023-05-22T10:42:38.548Z,53.29
2023-05-22T10:45:06.839Z,52.78
2023-05-22T10:47:32.530Z,53.15
2023-05-22T10:50:13.418Z,53.17
2023-05-22T10:52:39.516Z,53.53
2023-05-22T10:55:07.596Z,53.52
2023-05-22T10:57:33.830Z,52.66
2023-05-22T11:00:09.679Z,52.81
2023-05-22T11:02:44.227Z,52.85
2023-05-22T11:11:10.694Z,52.52
2023-05-22T11:13:36.341Z,52.77
2023-05-22T11:16:04.861Z,52.84
2023-05-22T11:18:30.598Z,52.88
2023-05-22T11:20:58.378Z,52.93
2023-05-22T11:23:24.494Z,52.82
2023-05-22T11:25:50.218Z,52.46
2023-05-22T11:28:16.281Z,52.51
2023-05-22T11:30:42.353Z,52.77
2023-05-22T11:33:08.329Z,52.91
2023-05-22T11:35:34.823Z,52.94
2023-05-22T11:38:03.914Z,52.69
2023-05-22T11:40:30.625Z,52.90
2023-05-22T11:42:56.316Z,53.43
2023-05-22T11:45:22.531Z,53.25
2023-05-22T11:47:48.897Z,53.29
2023-05-22T11:50:17.922Z,53.07
2023-05-22T11:52:49.271Z,55.02
2023-05-22T11:55:14.935Z,53.91
2023-05-22T11:57:40.580Z,53.45
2023-05-22T12:00:07.580Z,53.36
2023-05-22T12:02:34.012Z,53.56
2023-05-22T12:04:59.901Z,53.58
2023-05-22T12:07:26.835Z,53.72
2023-05-22T12:09:55.317Z,53.29
2023-05-22T12:12:22.463Z,52.89
2023-05-22T12:14:48.534Z,53.32
2023-05-22T12:17:16.044Z,53.46
2023-05-22T12:19:43.577Z,53.65
2023-05-22T12:22:11.667Z,53.55
2023-05-22T12:24:40.007Z,53.69
2023-05-22T12:27:07.684Z,53.47
2023-05-22T12:29:33.920Z,53.10
2023-05-22T12:32:04.304Z,52.98
2023-05-22T12:34:34.156Z,52.58
2023-05-22T12:36:59.943Z,52.52
2023-05-22T12:39:27.543Z,52.90
2023-05-22T12:41:53.205Z,52.91
2023-05-22T12:44:18.852Z,52.70
2023-05-22T12:46:44.619Z,53.05
2023-05-22T12:49:10.375Z,52.55
2023-05-22T12:51:36.085Z,52.75
2023-05-22T12:54:02.377Z,52.88
2023-05-22T12:56:28.619Z,53.43
2023-05-22T12:58:56.207Z,55.80
2023-05-22T13:01:23.459Z,55.47
2023-05-22T13:03:50.777Z,54.96
2023-05-22T13:06:16.446Z,54.75
2023-05-22T13:08:42.218Z,54.63
2023-05-22T13:11:09.919Z,54.48
2023-05-22T13:13:35.597Z,54.18
2023-05-22T13:16:01.267Z,54.20
2023-05-22T13:18:26.948Z,54.18
2023-05-22T13:20:52.638Z,54.04
2023-05-22T13:23:18.313Z,54.03
2023-05-22T13:25:43.954Z,53.92
2023-05-22T13:28:09.752Z,53.61
2023-05-22T13:30:35.413Z,53.30
2023-05-22T13:33:01.147Z,53.84
2023-05-22T13:35:26.871Z,53.69
2023-05-22T13:37:52.556Z,53.46
2023-05-22T13:40:18.598Z,55.58
2023-05-22T13:42:44.433Z,54.75
2023-05-22T13:45:10.609Z,54.97
2023-05-22T13:47:36.450Z,54.45
2023-05-22T13:50:02.106Z,54.48
2023-05-22T13:52:27.869Z,54.72
2023-05-22T13:54:54.112Z,54.46
2023-05-22T13:57:19.876Z,54.44
2023-05-22T13:59:45.521Z,54.55
2023-05-22T14:02:11.265Z,54.75
2023-05-22T14:04:36.950Z,54.69
2023-05-22T14:07:02.759Z,54.38
2023-05-22T14:09:29.760Z,54.80
2023-05-22T14:11:56.937Z,58.36
2023-05-22T14:14:23.249Z,56.11
2023-05-22T14:16:50.557Z,55.67
2023-05-22T14:19:16.729Z,55.05
2023-05-22T14:21:42.423Z,55.56
2023-05-22T14:24:08.132Z,55.20
2023-05-22T14:26:33.862Z,55.47
2023-05-22T14:28:59.641Z,55.08
2023-05-22T14:31:28.146Z,55.09
2023-05-22T14:33:53.944Z,54.58
2023-05-22T14:36:19.584Z,54.94
2023-05-22T14:38:45.889Z,54.78
2023-05-22T14:41:11.928Z,54.56
2023-05-22T14:43:37.580Z,55.04
2023-05-22T14:46:03.514Z,54.86
2023-05-22T14:48:29.279Z,54.58
2023-05-22T14:50:55.042Z,54.84
2023-05-22T14:53:21.373Z,54.47
2023-05-22T14:55:47.054Z,54.61
2023-05-22T14:58:12.971Z,54.01
2023-05-22T15:00:38.624Z,55.02
2023-05-22T15:03:04.359Z,54.43
2023-05-22T15:05:30.209Z,54.87
2023-05-22T15:07:57.719Z,54.51
2023-05-22T15:10:24.910Z,55.05
2023-05-22T15:12:51.098Z,54.83
2023-05-22T15:15:16.991Z,54.76
2023-05-22T15:17:43.174Z,54.29
2023-05-22T15:20:09.661Z,54.97
2023-05-22T15:22:35.346Z,55.02
2023-05-22T15:25:05.485Z,54.58
2023-05-22T15:27:31.889Z,54.44
2023-05-22T15:29:57.545Z,54.62
2023-05-22T15:32:23.271Z,54.37
2023-05-22T15:34:48.919Z,55.00
2023-05-22T15:37:14.584Z,54.38
2023-05-22T15:39:40.263Z,54.36
2023-05-22T15:42:07.040Z,54.46
2023-05-22T15:44:32.947Z,54.52
2023-05-22T15:46:58.615Z,54.37
2023-05-22T15:49:24.267Z,53.88
2023-05-22T15:51:49.924Z,53.92
2023-05-22T15:54:15.620Z,53.76
2023-05-22T15:56:41.276Z,58.18
2023-05-22T15:59:06.928Z,57.57
2023-05-22T16:01:33.124Z,58.79
2023-05-22T16:03:59.010Z,59.97
2023-05-22T16:06:24.770Z,59.14
2023-05-22T16:08:50.405Z,57.82
2023-05-22T16:11:16.047Z,59.14
2023-05-22T16:13:41.843Z,59.53
2023-05-22T16:16:07.565Z,60.68
2023-05-22T16:18:33.288Z,60.86
2023-05-22T16:20:58.936Z,60.13
2023-05-22T16:23:24.669Z,59.76
2023-05-22T16:25:50.930Z,60.29
2023-05-22T16:28:16.629Z,59.61
2023-05-22T16:30:42.280Z,60.82
2023-05-22T16:33:08.019Z,59.30
2023-05-22T16:35:34.025Z,59.61
2023-05-22T16:37:59.741Z,60.10
2023-05-22T16:40:25.409Z,59.83
2023-05-22T16:42:51.044Z,59.30
2023-05-22T16:45:16.693Z,58.35
2023-05-22T16:47:42.410Z,57.94
2023-05-22T16:50:08.282Z,57.90
2023-05-22T16:52:33.952Z,58.62
2023-05-22T16:55:00.319Z,58.53
2023-05-22T16:57:27.347Z,58.47
2023-05-22T16:59:53.035Z,57.78
2023-05-22T17:02:18.961Z,58.32
2023-05-22T17:04:45.434Z,58.15
2023-05-22T17:07:11.087Z,58.06
2023-05-22T17:09:36.734Z,57.96
2023-05-22T17:12:02.413Z,58.52
2023-05-22T17:14:28.081Z,58.09
2023-05-22T17:16:54.590Z,58.35
2023-05-22T17:19:20.564Z,58.10
2023-05-22T17:21:46.651Z,58.00
2023-05-22T17:24:14.508Z,57.97
2023-05-22T17:26:40.507Z,57.67
2023-05-22T17:29:06.509Z,57.76
2023-05-22T17:31:33.080Z,58.24
2023-05-22T17:33:59.083Z,57.65
2023-05-22T17:36:24.740Z,57.80
2023-05-22T17:38:50.393Z,57.79
2023-05-22T17:41:16.104Z,57.59
2023-05-22T17:43:41.756Z,57.85
2023-05-22T17:46:07.424Z,57.85
2023-05-22T17:48:33.544Z,57.77
2023-05-22T17:50:59.247Z,57.55
2023-05-22T17:53:25.656Z,57.63
2023-05-22T17:55:51.601Z,57.77
2023-05-22T17:58:18.654Z,57.54
2023-05-22T18:00:45.855Z,57.58
2023-05-22T18:03:12.216Z,57.69
2023-05-22T18:05:37.981Z,57.48
2023-05-22T18:08:03.722Z,57.44
2023-05-22T18:10:29.599Z,57.31
2023-05-22T18:12:55.237Z,57.47
2023-05-22T18:15:21.078Z,57.54
2023-05-22T18:17:46.754Z,57.25
2023-05-22T18:20:12.537Z,57.08
2023-05-22T18:22:38.910Z,57.05
2023-05-22T18:25:06.065Z,57.03
2023-05-22T18:27:33.283Z,57.07
2023-05-22T18:29:58.983Z,57.03
2023-05-22T18:32:24.618Z,56.96
2023-05-22T18:34:51.194Z,56.87
2023-05-22T18:37:18.677Z,56.74
2023-05-22T18:39:45.200Z,56.87
2023-05-22T18:42:11.060Z,56.73
2023-05-22T18:44:36.837Z,56.83
2023-05-22T18:47:02.661Z,56.81
2023-05-22T18:49:28.411Z,56.54
2023-05-22T18:51:54.060Z,56.62
2023-05-22T18:54:19.704Z,56.48
2023-05-22T18:56:45.427Z,56.63
2023-05-22T18:59:11.069Z,56.76
2023-05-22T19:01:36.801Z,56.46
2023-05-22T19:04:02.510Z,56.71
2023-05-22T19:06:28.146Z,56.68
2023-05-22T19:08:54.298Z,56.63
2023-05-22T19:11:19.929Z,56.24
2023-05-22T19:13:45.594Z,56.76
2023-05-22T19:16:12.662Z,56.25
2023-05-22T19:18:38.433Z,56.38
2023-05-22T19:21:04.123Z,56.43
2023-05-22T19:23:29.964Z,56.31
2023-05-22T19:25:56.298Z,56.30
2023-05-22T19:28:22.321Z,56.43
2023-05-22T19:30:47.978Z,56.20
2023-05-22T19:33:13.927Z,56.46
2023-05-22T19:35:40.109Z,56.24
2023-05-22T19:38:05.904Z,56.30
2023-05-22T19:40:31.551Z,56.08
2023-05-22T19:42:57.358Z,56.32
2023-05-22T19:45:25.077Z,56.10
2023-05-22T19:47:51.008Z,56.17
2023-05-22T19:50:16.827Z,56.06
2023-05-22T19:52:42.634Z,56.23
2023-05-22T19:55:09.494Z,56.05
2023-05-22T19:57:35.410Z,56.06
2023-05-22T20:00:01.352Z,56.18
2023-05-22T20:02:27.314Z,56.03
2023-05-22T20:04:53.919Z,55.94
2023-05-22T20:07:19.698Z,56.02
2023-05-22T20:09:45.366Z,55.90
2023-05-22T20:12:11.050Z,55.91
2023-05-22T20:14:37.073Z,55.98
2023-05-22T20:17:02.901Z,55.65
2023-05-22T20:19:29.050Z,55.98
2023-05-22T20:21:57.414Z,55.87
2023-05-22T20:24:24.616Z,55.90
2023-05-22T20:26:50.693Z,55.57
2023-05-22T20:29:16.679Z,55.79
2023-05-22T20:31:42.650Z,55.68
2023-05-22T20:34:08.687Z,55.76
2023-05-22T20:36:35.033Z,55.83
2023-05-22T20:39:01.570Z,55.80
2023-05-22T20:41:27.225Z,55.85
2023-05-22T20:43:53.578Z,55.81
2023-05-22T20:46:21.943Z,55.70
2023-05-22T20:48:48.059Z,55.56
2023-05-22T20:51:17.213Z,55.68
2023-05-22T20:53:42.884Z,55.64
2023-05-22T20:56:08.569Z,55.63
2023-05-22T20:58:34.209Z,55.64
2023-05-22T21:00:59.897Z,55.44
2023-05-22T21:03:26.071Z,55.42
2023-05-22T21:05:51.818Z,55.44
2023-05-22T21:08:17.458Z,55.54
2023-05-22T21:10:43.151Z,55.48
2023-05-22T21:13:08.797Z,55.49
2023-05-22T21:15:34.441Z,55.29
2023-05-22T21:18:00.218Z,55.52
2023-05-22T21:20:26.163Z,55.31
2023-05-22T21:22:51.817Z,55.37
2023-05-22T21:25:17.488Z,55.53
2023-05-22T21:27:43.136Z,55.47
2023-05-22T21:30:11.410Z,55.31
2023-05-22T21:32:37.006Z,55.06
2023-05-22T21:35:02.752Z,55.33
2023-05-22T21:37:28.397Z,55.40
2023-05-22T21:39:54.057Z,55.31
2023-05-22T21:42:20.289Z,55.35
2023-05-22T21:44:45.936Z,55.23
2023-05-22T21:47:11.581Z,55.10
2023-05-22T21:49:39.443Z,55.01
2023-05-22T21:52:05.396Z,55.06
2023-05-22T21:54:31.035Z,55.16
2023-05-22T21:56:56.682Z,55.06
2023-05-22T21:59:22.435Z,55.13
2023-05-22T22:01:48.129Z,55.00
2023-05-22T22:04:13.881Z,55.16
2023-05-22T22:06:39.564Z,54.99
2023-05-22T22:09:05.243Z,55.04
2023-05-22T22:11:30.886Z,55.13
2023-05-22T22:13:56.529Z,55.19
2023-05-22T22:16:22.375Z,54.92
2023-05-22T22:18:49.285Z,54.99
2023-05-22T22:21:15.168Z,55.11
2023-05-22T22:23:40.879Z,55.07
2023-05-22T22:26:06.964Z,54.90
2023-05-22T22:28:33.204Z,55.08
2023-05-22T22:30:58.930Z,54.97
2023-05-22T22:33:24.590Z,55.05
2023-05-22T22:35:51.101Z,54.96
2023-05-22T22:38:16.830Z,54.83
2023-05-22T22:40:42.749Z,54.86
2023-05-22T22:43:08.619Z,54.88
2023-05-22T22:45:34.293Z,54.86
2023-05-22T22:47:59.957Z,54.80
2023-05-22T22:50:26.383Z,54.56
2023-05-22T22:52:52.056Z,54.71
2023-05-22T22:55:17.898Z,54.63
2023-05-22T22:57:46.157Z,54.76
2023-05-22T23:00:12.853Z,54.81
2023-05-22T23:02:39.340Z,54.77
2023-05-22T23:05:05.863Z,54.73
2023-05-22T23:07:31.567Z,54.64
2023-05-22T23:09:57.217Z,54.66
2023-05-22T23:12:22.880Z,54.52
2023-05-22T23:14:49.637Z,54.57
2023-05-22T23:17:15.556Z,54.68
2023-05-22T23:19:41.382Z,54.68
2023-05-22T23:22:07.277Z,54.56
2023-05-22T23:24:32.980Z,54.63
2023-05-22T23:26:58.751Z,54.50
2023-05-22T23:29:24.442Z,54.59
2023-05-22T23:31:50.148Z,54.43
2023-05-22T23:34:16.150Z,54.57
2023-05-22T23:36:42.084Z,54.48
2023-05-22T23:39:07.977Z,54.77
2023-05-22T23:41:34.607Z,54.69
2023-05-22T23:44:00.759Z,54.60
2023-05-22T23:46:26.520Z,54.61
2023-05-22T23:48:52.525Z,54.45
2023-05-22T23:51:18.184Z,54.60
2023-05-22T23:53:44.159Z,54.44
2023-05-22T23:56:10.100Z,54.56
2023-05-22T23:58:37.263Z,54.39
